Time;durP1;ratioP1;P1;durP2;ratioP2;P2;SDS_P1;SDS_P2;PMS_P1;PMS_P2;Temp;Humidity;BMP_temperature;BMP_pressure;BME280_temperature;BME280_humidity;BME280_pressure;Samples;Min_cycle;Max_cycle;Signal;HPM_P1;HPM_P2
2022/12/06 00:00:54;;;;;;;23.37;18.80;;;;;7.80;99154.00;;;;16779950;28;20785;-47
2022/12/06 00:08:58;;;;;;;22.70;18.37;;;;;7.50;99153.00;;;;16778817;28;20204;-48
2022/12/06 00:17:01;;;;;;;22.90;18.90;;;;;8.00;99151.00;;;;16779365;28;20235;-47
2022/12/06 00:25:05;;;;;;;22.20;17.63;;;;;8.60;99139.00;;;;16779891;28;20649;-47
2022/12/06 00:33:08;;;;;;;26.57;19.10;;;;;8.70;99132.00;;;;16778193;28;20233;-48
2022/12/06 00:41:13;;;;;;;24.70;17.00;;;;;8.80;99119.00;;;;16777880;28;20729;-48
2022/12/06 00:49:16;;;;;;;18.93;16.57;;;;;8.60;99125.00;;;;16778342;28;20205;-48
2022/12/06 00:57:20;;;;;;;19.20;16.07;;;;;7.70;99140.00;;;;16778649;28;20342;-47
2022/12/06 01:05:22;;;;;;;17.37;14.47;;;;;7.20;99145.00;;;;16769860;28;20847;-48
2022/12/06 01:13:26;;;;;;;18.20;14.30;;;;;7.00;99139.00;;;;16775945;28;20302;-47
2022/12/06 01:21:29;;;;;;;18.00;14.70;;;;;6.70;99147.00;;;;16780861;28;20731;-48
2022/12/06 01:29:33;;;;;;;17.87;13.67;;;;;6.40;99151.00;;;;16787782;28;20203;-47
2022/12/06 01:37:35;;;;;;;17.20;13.70;;;;;6.10;99155.00;;;;16788198;28;20227;-47
2022/12/06 01:45:44;;;;;;;16.87;14.60;;;;;6.50;99132.00;;;;16789812;28;20281;-47
2022/12/06 01:53:48;;;;;;;17.47;14.70;;;;;6.40;99141.00;;;;16789659;28;20226;-48
2022/12/06 02:01:52;;;;;;;14.17;12.50;;;;;6.30;99132.00;;;;16786300;28;20227;-47
2022/12/06 02:09:55;;;;;;;13.10;11.70;;;;;6.80;99123.00;;;;16776855;28;20211;-48
2022/12/06 02:18:04;;;;;;;14.37;12.27;;;;;6.70;99132.00;;;;16785667;28;20225;-47
2022/12/06 02:26:26;;;;;;;14.20;11.30;;;;;6.70;99126.00;;;;16785236;28;20228;-48
2022/12/06 02:34:38;;;;;;;11.80;10.70;;;;;6.50;99116.00;;;;16782893;28;20234;-48
2022/12/06 02:42:44;;;;;;;15.73;12.20;;;;;6.80;99108.00;;;;16784245;28;20228;-47
2022/12/06 02:50:53;;;;;;;12.83;10.00;;;;;6.70;99095.00;;;;16784636;28;20223;-48
2022/12/06 02:58:56;;;;;;;13.53;10.90;;;;;6.60;99102.00;;;;16783564;28;20214;-47
2022/12/06 03:07:12;;;;;;;10.50;9.47;;;;;6.30;99099.00;;;;16776126;28;20374;-48
2022/12/06 03:15:20;;;;;;;11.57;10.00;;;;;6.40;99100.00;;;;16768505;28;20322;-48
2022/12/06 03:23:26;;;;;;;11.03;9.93;;;;;6.40;99090.00;;;;16774726;28;20298;-48
2022/12/06 03:31:30;;;;;;;12.63;10.63;;;;;6.60;99089.00;;;;16772789;28;20238;-46
2022/12/06 03:39:37;;;;;;;11.80;10.60;;;;;6.70;99079.00;;;;16777677;28;20622;-46
2022/12/06 03:47:45;;;;;;;11.20;10.10;;;;;7.10;99072.00;;;;16777217;28;20222;-48
2022/12/06 03:55:49;;;;;;;11.57;10.47;;;;;7.10;99069.00;;;;16780333;28;20245;-48
2022/12/06 04:03:52;;;;;;;12.77;10.53;;;;;7.20;99062.00;;;;16772489;28;20291;-48
2022/12/06 04:20:28;;;;;;;9.03;8.13;;;;;6.90;99058.00;;;;16580078;28;20222;-48
2022/12/06 04:45:12;;;;;;;10.30;9.00;;;;;7.70;99032.00;;;;16557116;28;20233;-47
2022/12/06 04:53:16;;;;;;;11.23;9.30;;;;;7.40;99030.00;;;;16555236;28;20225;-47
2022/12/06 05:01:19;;;;;;;10.13;9.03;;;;;7.40;99023.00;;;;16569686;28;20202;-47
2022/12/06 05:09:23;;;;;;;10.00;9.00;;;;;7.10;99023.00;;;;16579361;28;20309;-46
2022/12/06 05:17:25;;;;;;;9.90;9.00;;;;;7.60;99015.00;;;;16573527;28;20231;-47
2022/12/06 05:25:30;;;;;;;13.23;11.20;;;;;7.60;99017.00;;;;16579400;28;20222;-47
2022/12/06 05:33:32;;;;;;;9.50;8.47;;;;;8.20;99020.00;;;;16578743;28;20217;-47
2022/12/06 05:41:36;;;;;;;8.57;7.53;;;;;8.30;99015.00;;;;16578939;28;20214;-47
2022/12/06 05:49:39;;;;;;;8.73;7.83;;;;;7.40;99026.00;;;;16579055;28;20225;-48
2022/12/06 05:57:43;;;;;;;9.27;8.37;;;;;7.70;99021.00;;;;16580228;28;20234;-47
2022/12/06 06:05:47;;;;;;;10.20;8.43;;;;;8.40;99008.00;;;;16571061;28;20778;-48
2022/12/06 06:13:53;;;;;;;9.47;8.43;;;;;8.40;98998.00;;;;16560592;28;20231;-48
2022/12/06 06:21:55;;;;;;;10.93;9.90;;;;;8.10;99011.00;;;;16582308;28;20664;-48
2022/12/06 06:29:59;;;;;;;10.70;9.60;;;;;8.60;99013.00;;;;16563105;28;20227;-48
2022/12/06 06:38:02;;;;;;;8.40;7.60;;;;;8.80;99014.00;;;;16581776;28;20290;-47
2022/12/06 06:46:07;;;;;;;9.50;8.40;;;;;8.80;98997.00;;;;16569810;28;20227;-48
2022/12/06 06:54:09;;;;;;;9.10;8.20;;;;;8.90;98997.00;;;;16574630;28;20235;-48
2022/12/06 07:02:16;;;;;;;9.20;8.40;;;;;8.90;99006.00;;;;16578113;28;20554;-47
2022/12/06 07:10:18;;;;;;;9.80;8.50;;;;;9.00;99022.00;;;;16574977;28;20199;-48
2022/12/06 07:18:22;;;;;;;12.40;9.47;;;;;9.00;99013.00;;;;16574722;28;20228;-48
2022/12/06 07:26:25;;;;;;;10.20;8.77;;;;;8.80;99018.00;;;;16574263;28;20223;-48
2022/12/06 07:34:29;;;;;;;9.60;8.70;;;;;8.90;99020.00;;;;16572342;28;20237;-48
2022/12/06 07:50:53;;;;;;;13.40;12.40;;;;;8.00;99017.00;;;;16580066;28;20608;-48
2022/12/06 07:58:56;;;;;;;22.30;20.60;;;;;8.00;99005.00;;;;16562781;28;20329;-48
2022/12/06 08:06:59;;;;;;;13.00;11.80;;;;;8.10;99012.00;;;;16559335;28;20219;-47
2022/12/06 08:15:02;;;;;;;9.47;8.67;;;;;7.70;99023.00;;;;16561347;28;20269;-47
2022/12/06 08:23:06;;;;;;;9.43;8.47;;;;;8.10;99020.00;;;;16558151;28;20288;-47
2022/12/06 08:31:09;;;;;;;9.77;8.87;;;;;9.30;99007.00;;;;16560595;28;20209;-48
2022/12/06 08:39:14;;;;;;;9.40;8.50;;;;;8.30;99021.00;;;;16560603;28;20231;-47
2022/12/06 08:47:16;;;;;;;12.93;10.97;;;;;9.30;99017.00;;;;16555050;28;20233;-47
2022/12/06 08:55:20;;;;;;;11.67;9.07;;;;;9.70;99006.00;;;;16554690;28;20223;-47
2022/12/06 09:03:22;;;;;;;13.20;10.00;;;;;9.60;99014.00;;;;16558079;28;20621;-47
2022/12/06 09:11:27;;;;;;;14.00;9.73;;;;;9.10;99021.00;;;;16558368;28;20699;-47
2022/12/06 09:19:29;;;;;;;7.93;7.13;;;;;8.70;99029.00;;;;16557974;28;20231;-47
2022/12/06 09:27:33;;;;;;;17.60;10.93;;;;;8.40;99040.00;;;;16558272;28;20325;-48
2022/12/06 09:35:36;;;;;;;12.57;9.57;;;;;8.80;99033.00;;;;16558333;28;20227;-47
2022/12/06 09:43:50;;;;;;;12.37;11.07;;;;;9.20;99035.00;;;;16567919;28;20219;-47
2022/12/06 09:52:06;;;;;;;13.27;11.70;;;;;9.00;99035.00;;;;16570470;28;20722;-47
2022/12/06 10:00:13;;;;;;;17.30;10.83;;;;;9.90;99017.00;;;;16558407;28;20227;-47
2022/12/06 10:08:26;;;;;;;10.90;9.70;;;;;10.20;99018.00;;;;16566489;28;20554;-47
2022/12/06 10:16:40;;;;;;;11.07;9.90;;;;;8.60;99028.00;;;;16668504;22;20233;-47
2022/12/06 10:24:50;;;;;;;11.40;10.27;;;;;8.40;99031.00;;;;16752516;28;20217;-48
2022/12/06 10:32:55;;;;;;;16.03;9.90;;;;;8.60;99025.00;;;;16717196;28;20242;-48
2022/12/06 10:41:05;;;;;;;14.73;12.40;;;;;8.80;99021.00;;;;16715614;28;20303;-49
2022/12/06 10:49:17;;;;;;;12.50;10.97;;;;;8.60;99013.00;;;;16724663;28;20217;-50
2022/12/06 10:57:23;;;;;;;16.97;13.47;;;;;8.50;99008.00;;;;16719054;28;20235;-47
2022/12/06 11:05:32;;;;;;;16.03;12.90;;;;;8.60;98997.00;;;;16713784;28;20261;-50
2022/12/06 11:13:37;;;;;;;16.50;13.87;;;;;8.50;98980.00;;;;16714775;28;21684;-49
2022/12/06 11:21:45;;;;;;;14.50;12.97;;;;;8.10;98988.00;;;;16717500;28;20336;-50
2022/12/06 11:29:49;;;;;;;13.80;12.37;;;;;8.40;98988.00;;;;16714654;28;20220;-50
2022/12/06 11:37:56;;;;;;;13.93;11.90;;;;;8.00;98994.00;;;;16714059;28;20216;-50
2022/12/06 11:45:59;;;;;;;12.80;10.73;;;;;7.70;99006.00;;;;16716785;28;20616;-50
2022/12/06 11:54:05;;;;;;;13.00;9.10;;;;;7.70;99004.00;;;;16713899;28;20221;-50
2022/12/06 12:02:31;;;;;;;12.90;8.80;;;;;7.50;99012.00;;;;16709925;28;20671;-50
2022/12/06 12:10:37;;;;;;;11.83;8.77;;;;;7.60;99015.00;;;;16708359;28;20220;-47
2022/12/06 12:18:43;;;;;;;10.13;8.10;;;;;7.80;99003.00;;;;16713879;28;20379;-50
2022/12/06 12:26:47;;;;;;;10.57;7.13;;;;;7.70;99004.00;;;;16717344;28;20236;-48
2022/12/06 12:34:50;;;;;;;7.60;6.47;;;;;7.60;99000.00;;;;16721472;28;20220;-50
2022/12/06 12:42:59;;;;;;;8.27;5.70;;;;;7.50;99001.00;;;;16725792;28;20366;-48
2022/12/06 12:51:03;;;;;;;7.30;5.07;;;;;7.70;98993.00;;;;16713716;28;20220;-49
2022/12/06 12:59:14;;;;;;;5.23;4.03;;;;;7.60;98999.00;;;;16712542;28;20234;-49
2022/12/06 13:07:21;;;;;;;6.63;5.50;;;;;7.50;98996.00;;;;16707249;28;20302;-49
2022/12/06 13:15:32;;;;;;;7.30;6.33;;;;;8.00;98983.00;;;;16711069;28;20231;-49
2022/12/06 13:23:37;;;;;;;6.87;5.50;;;;;8.00;98983.00;;;;16721884;28;20213;-49
2022/12/06 13:31:41;;;;;;;7.50;6.20;;;;;7.50;98979.00;;;;16706042;28;20209;-50
2022/12/06 13:39:49;;;;;;;7.87;6.23;;;;;7.80;98981.00;;;;16721141;28;20225;-49
2022/12/06 13:47:53;;;;;;;8.80;5.97;;;;;7.90;98978.00;;;;16725080;28;20305;-50
2022/12/06 13:56:00;;;;;;;7.90;7.10;;;;;7.70;98980.00;;;;16724088;28;20304;-49
2022/12/06 14:04:07;;;;;;;6.90;5.77;;;;;7.50;98990.00;;;;16731796;28;20225;-50
2022/12/06 14:12:18;;;;;;;6.63;5.70;;;;;7.50;99001.00;;;;16730781;28;20227;-49
2022/12/06 14:20:23;;;;;;;5.87;5.37;;;;;7.40;98987.00;;;;16725069;28;20236;-49
2022/12/06 14:28:26;;;;;;;6.77;6.10;;;;;7.90;98996.00;;;;16718092;28;20217;-48
2022/12/06 14:36:32;;;;;;;6.80;6.20;;;;;7.80;98991.00;;;;16717330;28;20319;-49
2022/12/06 14:44:34;;;;;;;6.33;5.73;;;;;7.30;98991.00;;;;16716320;28;20338;-49
2022/12/06 14:52:59;;;;;;;7.23;5.80;;;;;7.20;99003.00;;;;16722723;28;20205;-49
2022/12/06 15:01:04;;;;;;;5.63;5.03;;;;;7.10;99001.00;;;;16721901;28;20225;-50
2022/12/06 15:09:14;;;;;;;7.53;6.17;;;;;7.40;98998.00;;;;16716245;28;20216;-50
2022/12/06 15:17:18;;;;;;;8.03;6.20;;;;;7.20;98995.00;;;;16715446;28;20787;-49
2022/12/06 15:25:22;;;;;;;7.90;7.10;;;;;7.30;98990.00;;;;16715281;28;20216;-49
2022/12/06 15:33:26;;;;;;;7.50;5.93;;;;;7.20;98984.00;;;;16724154;28;20196;-48
2022/12/06 15:41:30;;;;;;;7.30;6.60;;;;;7.30;98980.00;;;;16726913;28;20233;-49
2022/12/06 15:49:32;;;;;;;6.87;6.17;;;;;7.40;98983.00;;;;16714417;28;20223;-50
2022/12/06 15:57:36;;;;;;;8.57;6.50;;;;;7.30;98972.00;;;;16713559;28;20842;-49
2022/12/06 16:05:39;;;;;;;7.17;6.47;;;;;7.40;98996.00;;;;16714072;28;20351;-49
2022/12/06 16:21:56;;;;;;;7.27;6.50;;;;;7.30;98996.00;;;;16443904;28;20728;-47
2022/12/06 16:29:59;;;;;;;8.63;7.73;;;;;7.30;99001.00;;;;16436718;28;20639;-46
2022/12/06 16:38:03;;;;;;;9.93;8.70;;;;;7.40;99007.00;;;;16439414;28;20627;-47
2022/12/06 16:46:22;;;;;;;7.43;6.73;;;;;7.30;98999.00;;;;16424971;28;20375;-47
2022/12/06 16:54:26;;;;;;;7.73;6.90;;;;;7.30;99003.00;;;;16413748;28;20637;-47
2022/12/06 17:02:30;;;;;;;7.83;6.83;;;;;7.70;99000.00;;;;16433692;28;20216;-47
2022/12/06 17:10:34;;;;;;;8.80;7.90;;;;;7.50;99006.00;;;;16460273;28;20306;-48
2022/12/06 17:18:36;;;;;;;8.70;7.80;;;;;7.30;99006.00;;;;16422583;28;20239;-47
2022/12/06 17:26:40;;;;;;;7.50;6.80;;;;;7.50;99004.00;;;;16417069;28;20223;-47
2022/12/06 17:34:42;;;;;;;8.30;7.50;;;;;7.40;98990.00;;;;16416233;28;20592;-48
2022/12/06 17:43:01;;;;;;;9.93;8.90;;;;;7.40;98990.00;;;;16415753;28;20204;-48
2022/12/06 17:51:04;;;;;;;8.33;7.47;;;;;7.40;98994.00;;;;16414862;28;20699;-48
2022/12/06 17:59:10;;;;;;;9.50;8.03;;;;;7.50;98997.00;;;;16476620;28;20239;-48
2022/12/06 18:07:13;;;;;;;7.90;7.20;;;;;7.50;98996.00;;;;16461587;28;20220;-48
2022/12/06 18:23:33;;;;;;;8.20;7.30;;;;;7.40;99006.00;;;;16439224;28;20211;-48
2022/12/06 18:31:37;;;;;;;8.67;7.60;;;;;7.40;99011.00;;;;16458119;28;20235;-48
2022/12/06 18:39:39;;;;;;;9.37;8.57;;;;;7.40;99014.00;;;;16457796;28;20246;-48
2022/12/06 18:47:43;;;;;;;8.10;7.43;;;;;7.30;99013.00;;;;16441085;28;20319;-47
2022/12/06 18:55:46;;;;;;;7.60;6.80;;;;;7.50;99018.00;;;;16466721;28;20874;-48
2022/12/06 19:03:50;;;;;;;8.23;7.43;;;;;7.40;99011.00;;;;16462499;28;20892;-48
2022/12/06 19:11:52;;;;;;;12.00;10.80;;;;;7.70;99011.00;;;;16414636;28;20209;-48
2022/12/06 19:19:56;;;;;;;8.50;7.70;;;;;7.60;99008.00;;;;16402419;28;20244;-48
2022/12/06 19:27:58;;;;;;;8.60;7.80;;;;;7.50;99015.00;;;;16408754;28;20223;-48
2022/12/06 19:36:03;;;;;;;13.87;12.20;;;;;7.50;99011.00;;;;16406661;28;20617;-48
2022/12/06 19:44:15;;;;;;;10.83;9.93;;;;;7.70;99005.00;;;;16406564;28;20208;-49
2022/12/06 19:52:19;;;;;;;11.57;10.03;;;;;7.70;98992.00;;;;16404751;28;20295;-48
2022/12/06 20:00:21;;;;;;;11.17;10.03;;;;;7.60;98996.00;;;;16437377;28;20227;-47
2022/12/06 20:08:25;;;;;;;10.13;9.10;;;;;7.50;98998.00;;;;16454011;28;20240;-48
2022/12/06 20:16:27;;;;;;;12.13;10.87;;;;;7.90;98992.00;;;;16435432;28;20255;-48
2022/12/06 20:24:31;;;;;;;10.90;9.80;;;;;7.60;98998.00;;;;16443019;28;20694;-48
2022/12/06 20:32:34;;;;;;;10.00;8.90;;;;;7.40;99001.00;;;;16423862;28;20597;-48
2022/12/06 20:40:39;;;;;;;12.20;10.90;;;;;7.30;99006.00;;;;16395996;28;20270;-48
2022/12/06 20:48:42;;;;;;;9.70;8.70;;;;;7.30;99005.00;;;;16398664;28;20224;-48
2022/12/06 20:56:49;;;;;;;9.97;8.97;;;;;7.20;99015.00;;;;16431207;28;20232;-48
2022/12/06 21:04:52;;;;;;;10.80;9.70;;;;;7.40;99008.00;;;;16397229;28;20239;-48
2022/12/06 21:12:55;;;;;;;8.80;7.90;;;;;7.60;99015.00;;;;16409713;28;20688;-48
2022/12/06 21:20:58;;;;;;;8.87;7.93;;;;;8.10;99004.00;;;;16419849;28;20226;-48
2022/12/06 21:29:02;;;;;;;12.00;9.57;;;;;7.90;98997.00;;;;16451197;28;20676;-48
2022/12/06 21:37:04;;;;;;;9.67;8.70;;;;;8.00;99005.00;;;;16454460;28;20220;-48
2022/12/06 21:45:09;;;;;;;7.87;7.07;;;;;8.00;99005.00;;;;16461575;28;20310;-48
2022/12/06 21:53:12;;;;;;;7.70;6.90;;;;;7.90;99010.00;;;;16461589;28;20504;-48
2022/12/06 22:01:18;;;;;;;7.63;6.73;;;;;7.60;99011.00;;;;16458495;28;20588;-48
2022/12/06 22:09:20;;;;;;;9.60;7.23;;;;;7.70;99020.00;;;;16453480;28;20310;-48
2022/12/06 22:17:24;;;;;;;8.10;7.30;;;;;7.40;99017.00;;;;16454864;28;20234;-48
2022/12/06 22:25:27;;;;;;;8.97;7.63;;;;;7.40;99019.00;;;;16456794;28;20228;-48
2022/12/06 22:33:32;;;;;;;8.20;7.50;;;;;7.50;99015.00;;;;16459874;28;20546;-48
2022/12/06 22:41:35;;;;;;;10.57;7.60;;;;;7.40;99003.00;;;;16460796;28;20736;-48
2022/12/06 22:49:39;;;;;;;9.80;8.77;;;;;7.60;99007.00;;;;16459128;28;20245;-48
2022/12/06 22:57:41;;;;;;;9.70;8.13;;;;;7.50;99012.00;;;;16458145;28;20735;-48
2022/12/06 23:05:45;;;;;;;9.50;8.50;;;;;7.40;99009.00;;;;16457999;28;20234;-48
2022/12/06 23:13:47;;;;;;;11.73;9.13;;;;;7.80;99004.00;;;;16457013;28;20211;-48
2022/12/06 23:21:51;;;;;;;13.03;9.50;;;;;7.80;99003.00;;;;16455962;28;20223;-48
2022/12/06 23:29:53;;;;;;;10.90;8.57;;;;;7.50;99007.00;;;;16456403;28;20234;-48
2022/12/06 23:37:57;;;;;;;11.23;8.53;;;;;7.30;99004.00;;;;16455535;28;20323;-48
2022/12/06 23:46:00;;;;;;;11.33;8.40;;;;;7.40;99002.00;;;;16454772;28;20653;-48
2022/12/06 23:54:05;;;;;;;10.03;8.20;;;;;7.50;98990.00;;;;16454798;28;20230;-48
